Ely, Nevada Weather observations

Data are for observation ending at time listed.
 Day   Time    Ave.   Ave.  Ave.  Vector   Max.   Stn.    Total    Solar   Ave.  
  of    of     Air    Rel.  Wind   Wind    Wind   Baro.  Precip.   Rad.    Soil  
Year   Day     Temp.  Hum.  Speed  Dir.    Gust   Pres.                    Temp. 
2017   (PST)    F      %     mph   deg.    mph     mb.     in.     W/m2     F   
------------------------------------------------------------------------------
  22   19:00   30.5    83   20.8   110     28.4   798.0    0.00       0    30.8
  22   19:10   30.8    81   23.6   111     34.0   797.9    0.00       0    30.9
  22   19:20   30.8    82   20.3   112     29.3   797.8    0.00       0    30.8
  22   19:30   30.8    81   20.5   109     33.2   797.8    0.00       0    30.9
  22   19:40   30.7    82   19.5   108     32.6   797.8    0.00       0    30.9
  22   19:50   30.6    82   19.0   113     30.7   797.8    0.00       0    30.9
  22   20:00   30.5    84   20.3   116     28.1   797.6    0.00       0    30.9
  22   20:10   30.8    83   20.9   110     29.5   797.5    0.00       0    30.9
  22   20:20   30.8    83   20.5   111     29.5   797.4    0.00       0    30.9
  22   20:30   30.9    82   21.4   107     32.9   797.3    0.00       0    30.9
  22   20:40   30.8    83   21.1   109     28.8   797.2    0.00       0    30.9
  22   20:50   30.8    82   21.5   106     30.6   797.1    0.00       0    30.9
  22   21:00   31.0    81   22.5   111     35.0   797.2    0.00       0    30.9
  22   21:10   30.9    81   22.7   113     32.4   797.2    0.00       0    31.0
  22   21:20   30.7    83   21.6   120     29.3   797.2    0.00       0    30.9
  22   21:30   30.9    83   20.3   121     28.9   797.3    0.00       0    30.9
  22   21:40   31.2    82   20.4   126     31.0   797.3    0.00       0    30.9
  22   21:50   31.3    83   19.2   128     27.4   797.4    0.00       0    30.9
  22   22:00   31.4    83   20.6   119     29.8   797.2    0.00       0    30.9
  22   22:10   31.6    82   19.5   111     28.6   797.1    0.00       0    30.9
  22   22:20   31.7    81   20.6   111     32.7   797.0    0.00       0    30.9
  22   22:30   31.3    84   18.4   119     27.0   796.9    0.00       1    30.9
  22   22:40   31.4    84   17.7   117     26.7   796.9    0.00       0    30.9
  22   22:50   31.9    81   18.8   122     25.2   796.7    0.00       0    30.9
  22   23:00   31.6    80   19.4   132     25.6   796.7    0.00       0    30.9
  22   23:10   31.2    84   20.4   115     30.4   796.7    0.00       0    31.0
  22   23:20   30.3    90   20.3   114     29.2   796.6    0.00       0    31.0
  22   23:30   29.8    94   19.5   110     31.9   796.4    0.00       0    31.0
  22   23:40   29.9    94   19.9   105     32.4   796.3    0.00       0    31.0
  22   23:50   30.1    93   17.8   111     25.5   796.1    0.00       0    30.9
  23    0:00   30.3    88   16.1   140     24.8   795.9    0.00       0    30.9
  23    0:10   31.2    84   18.1   133     28.3   795.9    0.00       0    30.9
  23    0:20   31.6    85   20.1   121     29.5   795.6    0.00       0    31.0
  23    0:30   31.5    89   20.6   112     30.5   795.3    0.00       0    31.0
  23    0:40   32.4    86   21.0   113     29.9   795.1    0.00       0    31.0
  23    0:50   32.9    84   22.4   125     32.0   795.0    0.00       0    30.9
  23    1:00   32.2    89   20.8   110     32.0   794.9    0.00       0    30.9
  23    1:10   32.0    92   19.9   108     29.1   794.7    0.00       0    31.0
  23    1:20   32.4    90   22.0   115     31.3   794.6    0.00       0    31.0
  23    1:30   32.8    87   20.0   119     28.6   794.4    0.00       1    31.0
  23    1:40   33.4    83   20.9   132     28.5   794.3    0.00       1    31.0
  23    1:50   33.7    80   18.1   136     27.2   794.4    0.00       0    31.0
  23    2:00   33.8    79   19.5   129     27.4   794.3    0.00       0    30.9
  23    2:10   33.7    80   19.3   131     27.7   794.1    0.00       0    31.0
  23    2:20   33.4    81   18.0   116     28.9   794.0    0.00       1    31.0
  23    2:30   33.3    80   18.5   119     28.4   794.0    0.00       0    31.0
  23    2:40   33.5    79   21.9   119     31.4   793.8    0.00       1    31.0
  23    2:50   33.2    81   20.8   117     30.2   793.8    0.00       1    31.0
  23    3:00   32.7    84   23.0   121     32.2   793.7    0.00       1    31.1
  23    3:10   32.4    86   22.6   126     32.9   793.7    0.00       0    31.0
  23    3:20   32.4    86   21.0   130     28.4   793.7    0.00       1    31.1
  23    3:30   32.2    88   20.5   132     27.8   793.7    0.00       0    31.0
  23    3:40   32.1    89   20.2   133     29.5   793.6    0.00       0    31.1
  23    3:50   31.7    92   17.4   136     24.3   793.6    0.00       0    31.1
  23    4:00   31.6    92   15.5   131     23.1   793.4    0.00       0    31.1
  23    4:10   31.9    90   15.1   126     21.5   793.3    0.00       0    31.0
  23    4:20   32.1    89   12.5   145     18.3   793.4    0.00       0    31.0
  23    4:30   32.3    89   11.5   140     19.2   793.4    0.00       0    31.1
  23    4:40   33.0    83   13.1   151     26.0   793.3    0.00       0    31.1
  23    4:50   33.5    75   14.7   167     28.3   793.1    0.00       0    31.0
  23    5:00   32.8    77   21.0   168     39.6   792.6    0.00       0    31.1
  23    5:10   31.4    84   27.6   175     46.9   792.0    0.00       0    31.1
  23    5:20   31.1    82   24.2   169     39.2   791.8    0.00       0    31.1
  23    5:30   31.2    81   24.3   165     40.1   791.6    0.00       0    31.1
  23    5:40   30.9    83   26.0   164     41.9   791.7    0.00       0    31.1
  23    5:50   31.7    77   16.6   150     31.0   792.1    0.00       0    31.1
  23    6:00   32.5    71   14.5   136     28.2   792.4    0.00       0    31.1
  23    6:10   32.3    75   10.8   140     28.1   792.8    0.00       0    31.1
  23    6:20   31.3    80    7.0   204     26.3   793.5    0.00       0    31.1
  23    6:30   29.8    83   18.8   239     31.0   794.1    0.00       0    31.1
  23    6:40   27.6    92   13.6   294     20.5   794.7    0.00       0    31.2
  23    6:50   27.3    93   10.1   326     14.5   794.8    0.00       2    31.2
  23    7:00   27.5    91    7.2   325     11.6   794.9    0.00       6    31.2
  23    7:10   27.7    87    7.2   289      9.5   794.8    0.00       7    31.2
  23    7:20   27.7    85    5.7   252      8.4   794.9    0.00       7    31.2
  23    7:30   27.6    86    4.2   225      6.4   795.1    0.00      19    31.3
  23    7:40   27.6    87    2.7   204      3.8   795.1    0.00      27    31.2
  23    7:50   27.9    86    2.0   192      2.9   795.2    0.00      38    31.2
  23    8:00   28.5    84    0.9   200      2.3   795.3    0.00      47    31.2
  23    8:10   28.4    84    1.7    41      3.9   795.3    0.00      60    31.2
  23    8:20   28.4    85    2.4    34      3.8   795.4    0.00      78    31.2
  23    8:30   29.4    81    1.5   219      6.1   795.5    0.00      84    31.1
  23    8:40   28.9    80    3.3   255      6.9   795.6    0.00      81    31.2
  23    8:50   28.2    86    3.3   236      5.0   795.7    0.00      81    31.2
  23    9:00   28.0    90    3.7   220      5.7   795.7    0.00      80    31.2
  23    9:10   27.8    91    3.9   270      5.7   795.9    0.00      75    31.2
  23    9:20   27.7    91    3.7   296      5.2   796.0    0.00      78    31.2
  23    9:30   28.2    91    2.3   347      3.0   795.9    0.00     113    31.2
  23    9:40   28.3    90    3.9    18      7.1   795.9    0.00     119    31.2
  23    9:50   28.6    89    1.4   353      6.2   796.0    0.00     124    31.1
  23   10:00   30.3    84    1.9   123      4.0   796.2    0.00     204    31.1
  23   10:10   31.0    79    4.2   211     10.9   796.3    0.00     263    31.1
  23   10:20   29.0    78   10.0   236     13.6   796.4    0.00     186    31.1
  23   10:30   28.5    74   11.6   250     15.2   796.5    0.00     185    31.2
  23   10:40   29.1    71    9.0   241     11.4   796.4    0.00     248    31.2
  23   10:50   29.2    68   10.4   241     13.5   796.4    0.01     229    31.2
  23   11:00   28.8    67   10.6   247     14.6   796.5    0.00     192    31.2
  23   11:10   28.8    66    9.7   247     13.2   796.6    0.00     225    31.2
  23   11:20   28.9    64   10.3   246     13.9   796.5    0.00     245    31.2
  23   11:30   28.7    61   13.5   239     17.4   796.4    0.00     286    31.2
  23   11:40   28.5    61   13.3   241     15.5   796.4    0.00     293    31.2
  23   11:50   28.5    61   10.5   249     14.2   796.5    0.00     287    31.2
  23   12:00   28.5    62    9.9   252     13.9   796.4    0.00     317    31.2
  23   12:10   28.8    61    7.1   248     12.8   796.5    0.00     326    31.2
  23   12:20   30.9    56    1.4   276      4.0   796.7    0.00     354    31.2
  23   12:30   31.8    53    1.9    16      4.4   796.7    0.01     390    31.2
  23   12:40   32.3    52    3.0   292     11.5   796.6    0.00     438    31.2
  23   12:50   30.1    51   10.2   267     14.1   796.6    0.01     365    31.2
  23   13:00   29.1    54   10.1   260     17.3   796.6    0.00     309    31.3
  23   13:10   28.9    56    9.4   257     13.8   796.6    0.00     340    31.3
  23   13:20   28.9    57    9.1   252     15.4   796.6    0.00     345    31.3
  23   13:30   29.0    56    9.8   258     14.3   796.6    0.00     399    31.3
  23   13:40   29.2    54    7.6   264     11.8   796.6    0.00     364    31.3
  23   13:50   29.0    54    7.9   271     10.9   796.6    0.00     315    31.3
  23   14:00   29.3    55    4.1   271      8.8   796.7    0.00     274    31.3
  23   14:10   29.6    56    3.8   291      6.1   796.8    0.00     273    31.3
  23   14:20   29.7    54    4.3   268      8.1   796.9    0.00     279    31.3
  23   14:30   29.0    56    5.6   260      9.3   797.0    0.00     253    31.3
  23   14:40   28.8    54    5.4   258      8.6   797.1    0.00     229    31.3
  23   14:50   28.8    54    4.4   249      7.1   797.1    0.00     209    31.3
  23   15:00   28.9    54    3.2   261      5.0   797.2    0.00     198    31.3
  23   15:10   29.0    53    3.2   253      5.8   797.2    0.00     202    31.3
  23   15:20   29.0    53    3.5   252      5.3   797.3    0.00     235    31.3
  23   15:30   29.7    51    3.0   288      4.3   797.4    0.00     225    31.3
  23   15:40   28.5    53    3.8   277      6.9   797.4    0.00     122    31.3
  23   15:50   27.0    56    5.0   262      6.8   797.4    0.00      86    31.3
  23   16:00   25.2    60    5.7   262      7.5   797.5    0.00      74    31.3
  23   16:10   25.3    58    7.5   269     11.3   797.4    0.00      72    31.4
  23   16:20   25.3    59    3.8   333      6.8   797.5    0.00      83    31.4
  23   16:30   24.9    62    2.5    14      4.0   797.5    0.00      34    31.4
  23   16:40   24.9    60    1.1   320      2.9   797.6    0.00      25    31.4
  23   16:50   23.8    62    0.2   244      1.2   797.6    0.00      14    31.4
  23   17:00   22.3    64    2.8   249      5.3   797.5    0.00       6    31.3
  23   17:10   19.9    66    4.1   274      6.9   797.5    0.00       1    31.3
  23   17:20   18.8    68    2.9   264      5.5   797.7    0.00       0    31.4
  23   17:30   18.2    70    1.6   230      4.2   797.8    0.00       0    31.3
  23   17:40   17.5    69    1.8   222      4.7   797.9    0.00       0    31.3
  23   17:50   16.0    71    3.1    43      6.6   797.8    0.00       0    31.3
  23   18:00   15.9    73    1.5   207      4.0   797.9    0.00       0    31.3
  23   18:10   15.6    71    3.4   142      7.7   797.9    0.00       0    31.3
  23   18:20   13.7    74    2.4    52      6.1   798.0    0.00       0    31.3
  23   18:30   12.0    75    4.4   181      6.1   798.0    0.00       0    31.3
  23   18:40   13.5    75    5.0    73     10.9   798.1    0.00       0    31.3
  23   18:50   15.5    73    1.5   327      4.1   798.3    0.00       0    31.3

Return to Ely, Nevada graphs page.


Western Regional Climate Center,wrcc@dri.edu